Time;durP1;ratioP1;P1;durP2;ratioP2;P2;SDS_P1;SDS_P2;PMS_P1;PMS_P2;Temp;Humidity;BMP_temperature;BMP_pressure;BME280_temperature;BME280_humidity;BME280_pressure;Samples;Min_cycle;Max_cycle;Signal;HPM_P1;HPM_P2
2021/09/15 00:00:12;;;;;;;6.17;5.47;;;;;;;19.02;60.96;100410.58;2166255;89;26050;-84
2021/09/15 00:03:51;;;;;;;8.85;6.53;;;;;;;18.98;60.93;100416.34;2127678;90;26408;-76
2021/09/15 00:07:23;;;;;;;8.98;5.37;;;;;;;18.94;61.07;100409.35;2130652;92;25791;-74
2021/09/15 00:10:50;;;;;;;7.80;5.45;;;;;;;18.96;61.04;100410.64;2131434;92;25646;-86
2021/09/15 00:14:29;;;;;;;12.00;5.67;;;;;;;18.92;61.09;100415.53;2107556;92;26344;-75
2021/09/15 00:17:55;;;;;;;6.47;5.60;;;;;;;18.88;61.16;100423.48;2188946;89;25839;-75
2021/09/15 00:21:19;;;;;;;7.65;4.87;;;;;;;18.86;61.23;100412.05;2166204;90;25916;-89
2021/09/15 00:24:40;;;;;;;5.70;4.85;;;;;;;18.89;61.14;100417.75;2162743;90;25667;-86
2021/09/15 00:28:14;;;;;;;7.25;5.25;;;;;;;18.84;61.17;100420.45;2159187;90;31327;-75
2021/09/15 00:31:35;;;;;;;5.30;4.78;;;;;;;18.82;61.30;100419.58;2110529;92;26088;-88
2021/09/15 00:35:07;;;;;;;5.30;4.83;;;;;;;18.76;61.34;100418.75;2152657;88;25865;-87
2021/09/15 00:38:56;;;;;;;7.85;5.58;;;;;;;18.75;61.45;100420.98;2160888;90;25670;-73
2021/09/15 00:42:17;;;;;;;4.95;4.60;;;;;;;18.71;61.47;100417.91;2156948;90;25975;-87
2021/09/15 00:46:02;;;;;;;7.83;6.22;;;;;;;18.66;61.58;100419.25;2158852;89;25715;-85
2021/09/15 00:49:27;;;;;;;6.22;5.78;;;;;;;18.73;61.65;100421.01;2165244;91;25792;-74
2021/09/15 00:53:14;;;;;;;6.40;5.50;;;;;;;18.74;61.61;100423.20;2159511;91;25727;-75
2021/09/15 00:56:42;;;;;;;5.62;5.12;;;;;;;18.74;61.65;100423.20;2160718;91;25821;-76
2021/09/15 01:00:06;;;;;;;11.50;6.10;;;;;;;18.76;61.72;100430.64;2159548;91;25976;-82
2021/09/15 01:03:28;;;;;;;15.05;7.40;;;;;;;18.71;61.76;100428.02;2170751;89;25754;-75
2021/09/15 01:06:53;;;;;;;8.68;6.17;;;;;;;18.70;61.78;100432.02;2169646;90;25770;-84
2021/09/15 01:10:34;;;;;;;12.80;6.33;;;;;;;18.66;61.97;100425.85;2214115;88;25653;-74
2021/09/15 01:14:06;;;;;;;11.20;6.25;;;;;;;18.67;61.91;100427.63;2214020;88;25700;-78
2021/09/15 01:17:40;;;;;;;7.42;6.62;;;;;;;18.71;62.04;100434.63;2068111;94;25830;-78
2021/09/15 01:21:04;;;;;;;7.55;6.75;;;;;;;18.67;61.99;100426.30;2038671;94;26097;-79
2021/09/15 01:24:43;;;;;;;7.28;6.58;;;;;;;18.66;62.14;100427.17;2064258;94;25955;-74
2021/09/15 01:28:05;;;;;;;7.17;6.17;;;;;;;18.67;62.11;100428.95;2065130;95;30950;-82
2021/09/15 01:31:30;;;;;;;9.43;5.92;;;;;;;18.66;62.12;100429.81;2065543;95;25806;-87
2021/09/15 01:34:52;;;;;;;7.17;6.47;;;;;;;18.64;62.20;100421.92;2063541;95;25768;-81
2021/09/15 01:38:33;;;;;;;8.95;6.25;;;;;;;18.63;62.20;100424.59;2065903;95;25749;-85
2021/09/15 01:42:00;;;;;;;9.08;7.08;;;;;;;18.61;62.30;100425.91;2065396;95;25797;-79
2021/09/15 01:45:21;;;;;;;6.50;5.80;;;;;;;18.59;62.39;100426.80;2067719;94;25790;-86
2021/09/15 01:48:45;;;;;;;11.43;7.47;;;;;;;18.65;62.40;100421.47;2063356;95;25788;-75
2021/09/15 01:52:28;;;;;;;6.35;5.78;;;;;;;18.64;62.31;100424.56;2066533;95;25793;-88
2021/09/15 01:56:17;;;;;;;12.05;6.12;;;;;;;18.63;62.38;100419.31;2186555;89;25591;-80
2021/09/15 01:59:59;;;;;;;6.70;6.00;;;;;;;18.64;62.40;100421.05;2210330;89;25668;-88
2021/09/15 02:07:10;;;;;;;11.00;6.67;;;;;;;18.59;62.41;100417.55;2101399;92;25799;-76
2021/09/15 02:10:52;;;;;;;7.00;5.92;;;;;;;18.47;62.53;100415.91;2114559;91;25768;-87
2021/09/15 02:14:14;;;;;;;6.92;6.22;;;;;;;18.40;62.69;100413.77;2115943;92;26052;-86
2021/09/15 02:17:37;;;;;;;7.20;6.58;;;;;;;18.35;62.86;100420.83;2114742;91;25860;-85
2021/09/15 02:21:00;;;;;;;7.20;6.50;;;;;;;18.36;63.03;100430.52;2114664;91;25762;-87
2021/09/15 02:24:26;;;;;;;8.45;7.10;;;;;;;18.39;63.04;100430.91;2112402;91;25724;-81
2021/09/15 02:28:08;;;;;;;10.38;6.40;;;;;;;18.40;63.05;100426.96;2107021;92;25537;-82
2021/09/15 02:31:37;;;;;;;9.30;7.80;;;;;;;18.36;63.05;100431.84;2111393;92;25954;-73
2021/09/15 02:35:12;;;;;;;6.50;5.90;;;;;;;18.34;63.09;100423.04;2114931;93;25766;-87
2021/09/15 02:38:45;;;;;;;6.62;6.03;;;;;;;18.31;63.17;100424.38;2108265;91;25286;-74
2021/09/15 02:42:28;;;;;;;6.78;6.10;;;;;;;18.31;63.26;100432.30;2109081;91;25892;-75
2021/09/15 02:46:08;;;;;;;7.00;6.40;;;;;;;18.27;63.35;100429.26;2105555;91;25884;-87
2021/09/15 02:49:30;;;;;;;8.05;6.70;;;;;;;18.28;63.46;100423.08;2103424;92;26349;-74
2021/09/15 02:53:03;;;;;;;8.55;6.30;;;;;;;18.25;63.48;100421.78;2110082;90;25767;-74
2021/09/15 02:56:46;;;;;;;8.78;7.47;;;;;;;18.25;63.62;100430.14;2112014;92;25698;-74
2021/09/15 03:00:33;;;;;;;6.72;6.03;;;;;;;18.26;63.67;100423.56;2104115;92;25966;-82
2021/09/15 03:03:58;;;;;;;10.85;6.97;;;;;;;18.36;63.61;100422.60;2121237;92;25892;-86
2021/09/15 03:07:41;;;;;;;6.55;5.87;;;;;;;18.37;63.58;100428.75;2133208;92;25718;-76
2021/09/15 03:11:02;;;;;;;7.47;6.78;;;;;;;18.41;63.55;100420.78;2141603;90;25745;-81
2021/09/15 03:14:26;;;;;;;7.25;6.55;;;;;;;18.41;63.45;100422.10;2201880;89;25709;-81
2021/09/15 03:17:47;;;;;;;6.70;6.05;;;;;;;18.45;63.41;100414.16;2212094;88;25630;-84
2021/09/15 03:21:09;;;;;;;7.35;6.35;;;;;;;18.44;63.33;100413.74;2214943;88;25655;-84
2021/09/15 03:24:31;;;;;;;9.83;7.00;;;;;;;18.48;63.31;100411.05;2215428;89;25684;-75
2021/09/15 03:27:53;;;;;;;6.58;5.70;;;;;;;18.51;63.31;100410.16;2212900;88;25760;-86
2021/09/15 03:31:14;;;;;;;13.78;7.47;;;;;;;18.48;63.32;100405.77;2214393;89;25773;-77
2021/09/15 03:34:35;;;;;;;10.23;7.20;;;;;;;18.46;63.38;100408.89;2215794;88;30864;-74
2021/09/15 03:38:00;;;;;;;10.18;7.85;;;;;;;18.44;63.45;100409.78;2215570;89;25642;-87
2021/09/15 03:41:21;;;;;;;8.25;6.83;;;;;;;18.40;63.49;100415.08;2215363;89;25608;-87
2021/09/15 03:44:42;;;;;;;9.95;7.45;;;;;;;18.41;63.54;100404.08;2215783;89;25586;-87
2021/09/15 03:48:04;;;;;;;8.05;7.03;;;;;;;18.49;63.48;100407.97;2213687;89;30809;-76
2021/09/15 03:51:26;;;;;;;10.85;7.10;;;;;;;18.48;63.45;100412.38;2215249;89;25558;-86
2021/09/15 03:54:48;;;;;;;7.40;6.78;;;;;;;18.46;63.48;100415.48;2212695;89;25719;-88
2021/09/15 03:58:08;;;;;;;7.62;6.92;;;;;;;18.45;63.54;100410.20;2203349;89;30943;-87
2021/09/15 04:01:30;;;;;;;8.90;6.95;;;;;;;18.43;63.57;100410.23;2202180;89;25651;-75
2021/09/15 04:04:51;;;;;;;13.65;7.30;;;;;;;18.40;63.66;100404.52;2215737;87;25628;-81
2021/09/15 04:08:15;;;;;;;12.30;7.40;;;;;;;18.40;63.71;100395.73;2215697;88;25784;-82
2021/09/15 04:11:35;;;;;;;12.43;7.40;;;;;;;18.39;63.78;100396.59;2215531;89;25639;-84
2021/09/15 04:14:56;;;;;;;15.00;8.43;;;;;;;18.41;63.74;100397.48;2215922;89;30937;-86
2021/09/15 04:18:18;;;;;;;9.20;7.55;;;;;;;18.41;63.76;100393.52;2203815;89;26285;-75
2021/09/15 04:21:41;;;;;;;15.20;6.67;;;;;;;18.38;63.77;100394.41;2213337;89;25636;-76
2021/09/15 04:32:38;;;;;;;11.88;7.35;;;;;;;18.49;63.54;100381.56;2216374;88;25752;-75
2021/09/15 04:36:00;;;;;;;9.20;7.03;;;;;;;18.45;63.51;100374.56;2214400;89;25618;-78
2021/09/15 04:39:21;;;;;;;11.00;7.42;;;;;;;18.42;63.55;100378.09;2203020;89;25743;-87
2021/09/15 04:42:42;;;;;;;10.55;8.45;;;;;;;18.37;63.59;100378.16;2215488;89;25232;-78
2021/09/15 04:46:04;;;;;;;9.15;7.60;;;;;;;18.35;63.63;100383.00;2215342;89;25660;-76
2021/09/15 04:49:28;;;;;;;7.87;7.03;;;;;;;18.33;63.62;100384.35;2214884;89;25661;-75
2021/09/15 04:52:49;;;;;;;7.97;6.60;;;;;;;18.36;63.56;100383.01;2215905;89;25899;-82
2021/09/15 04:56:11;;;;;;;9.85;6.97;;;;;;;18.35;63.53;100379.91;2215433;89;25681;-74
2021/09/15 04:59:31;;;;;;;16.95;7.40;;;;;;;18.33;63.52;100383.03;2215450;88;25888;-85
2021/09/15 05:02:56;;;;;;;8.78;6.72;;;;;;;18.32;63.58;100380.38;2211913;87;31332;-76
2021/09/15 05:06:37;;;;;;;8.95;6.58;;;;;;;18.37;63.57;100387.84;2212425;88;25672;-89
2021/09/15 05:09:58;;;;;;;13.05;7.15;;;;;;;18.44;63.41;100396.58;2143317;88;25992;-87
2021/09/15 05:13:29;;;;;;;9.28;6.62;;;;;;;18.43;63.36;100395.71;2142304;92;25812;-75
2021/09/15 05:16:59;;;;;;;11.28;7.75;;;;;;;18.46;63.36;100404.93;2145486;92;25742;-75
2021/09/15 05:20:20;;;;;;;9.78;7.45;;;;;;;18.51;63.31;100402.23;2140499;92;25763;-81
2021/09/15 05:23:46;;;;;;;14.07;7.03;;;;;;;18.54;63.20;100407.50;2145716;92;25750;-73
2021/09/15 05:27:08;;;;;;;11.05;7.05;;;;;;;18.58;63.13;100406.13;2145613;91;25812;-75
2021/09/15 05:30:44;;;;;;;15.35;6.65;;;;;;;18.62;63.04;100413.57;2146488;92;25708;-84
2021/09/15 05:34:05;;;;;;;11.83;7.05;;;;;;;18.69;62.94;100412.63;2145788;92;25793;-75
2021/09/15 05:37:29;;;;;;;11.97;6.92;;;;;;;18.74;62.88;100399.43;2147433;92;25777;-76
2021/09/15 05:40:50;;;;;;;11.03;6.97;;;;;;;18.81;62.75;100397.16;2148280;92;25304;-76
2021/09/15 05:44:12;;;;;;;8.90;5.95;;;;;;;18.83;62.79;100406.83;2146850;92;26024;-75
2021/09/15 05:47:36;;;;;;;12.58;6.87;;;;;;;18.90;62.65;100402.77;2163105;89;26415;-80
2021/09/15 05:50:59;;;;;;;10.98;6.53;;;;;;;19.01;62.59;100403.56;2208953;89;25572;-75
2021/09/15 05:54:29;;;;;;;9.48;6.67;;;;;;;19.06;62.49;100404.37;2212667;88;25581;-75
2021/09/15 05:57:50;;;;;;;20.40;6.80;;;;;;;19.11;62.39;100398.60;2205064;88;25736;-74
2021/09/15 06:01:12;;;;;;;10.20;6.67;;;;;;;19.20;62.22;100405.08;2209342;88;26404;-75
2021/09/15 06:04:33;;;;;;;9.33;5.87;;;;;;;19.27;62.03;100400.19;2199072;88;30869;-76
2021/09/15 06:08:13;;;;;;;6.40;5.35;;;;;;;19.34;61.87;100403.18;2214270;88;25731;-79
2021/09/15 06:11:34;;;;;;;10.53;5.95;;;;;;;19.41;61.80;100399.14;2215898;88;25751;-74
2021/09/15 06:14:55;;;;;;;11.65;5.42;;;;;;;19.48;61.60;100392.88;2215452;89;25705;-75
2021/09/15 06:18:19;;;;;;;8.37;5.23;;;;;;;19.57;61.47;100391.00;2215876;89;25692;-75
2021/09/15 06:21:44;;;;;;;6.20;5.13;;;;;;;19.65;61.28;100388.27;2207866;88;25680;-76
2021/09/15 06:25:27;;;;;;;;;;;;;;;19.74;61.13;100398.73;2215069;89;25633;-84
2021/09/15 06:28:48;;;;;;;14.43;4.97;;;;;;;19.80;60.90;100398.62;2206348;88;26092;-86
2021/09/15 06:32:18;;;;;;;18.75;5.80;;;;;;;19.91;60.85;100394.53;2196042;89;26442;-74
2021/09/15 06:35:42;;;;;;;6.55;4.40;;;;;;;20.03;60.60;100389.49;2211342;88;25760;-75
2021/09/15 06:39:03;;;;;;;10.90;5.15;;;;;;;20.11;60.49;100384.94;2211914;88;25867;-79
2021/09/15 06:42:34;;;;;;;10.20;5.87;;;;;;;20.22;60.31;100383.02;2213109;89;31448;-76
2021/09/15 06:46:12;;;;;;;13.30;4.90;;;;;;;20.28;60.13;100380.70;2212324;87;25721;-75
2021/09/15 06:49:43;;;;;;;5.60;4.15;;;;;;;20.39;60.00;100369.97;2210709;87;25736;-86
2021/09/15 06:53:06;;;;;;;6.42;4.05;;;;;;;20.48;59.88;100371.98;2213833;88;25981;-88
2021/09/15 06:56:27;;;;;;;9.68;4.90;;;;;;;20.59;59.68;100378.47;2211006;89;26256;-84
2021/09/15 07:00:14;;;;;;;8.28;5.22;;;;;;;20.70;59.61;100361.92;2213326;89;25671;-80
2021/09/15 07:03:24;;;;;;;8.08;5.20;;;;;;;20.88;59.33;100357.17;2210143;88;25530;-83
2021/09/15 07:07:11;;;;;;;14.07;5.78;;;;;;;20.98;58.97;100353.45;2212099;88;26008;-77
2021/09/15 07:10:42;;;;;;;11.08;5.42;;;;;;;21.14;58.70;100357.55;2159122;91;25823;-76
2021/09/15 07:14:11;;;;;;;9.45;4.83;;;;;;;23.97;56.60;100373.35;2158728;91;25746;-77
2021/09/15 07:17:35;;;;;;;7.03;5.40;;;;;;;26.77;52.48;100375.86;2124930;92;25932;-77
2021/09/15 07:20:56;;;;;;;5.78;5.28;;;;;;;29.05;48.31;100382.83;2128180;91;25759;-84
2021/09/15 07:24:34;;;;;;;8.05;5.75;;;;;;;30.78;44.61;100395.48;2126809;92;25418;-76
2021/09/15 07:27:57;;;;;;;11.63;4.97;;;;;;;32.39;41.86;100396.52;2126623;92;25858;-85
2021/09/15 07:31:17;;;;;;;8.80;5.40;;;;;;;33.92;39.23;100408.80;2129815;92;25659;-84
2021/09/15 07:34:47;;;;;;;14.05;4.65;;;;;;;35.14;36.79;100405.92;2128033;92;25809;-91
2021/09/15 07:38:21;;;;;;;16.07;5.55;;;;;;;36.39;34.84;100415.20;2062210;95;25558;-78
2021/09/15 07:41:49;;;;;;;12.73;4.92;;;;;;;37.51;32.74;100417.30;2061824;95;25894;-92
2021/09/15 07:45:35;;;;;;;7.55;3.70;;;;;;;38.30;31.08;100414.30;2057917;94;25876;-86
2021/09/15 07:52:52;;;;;;;7.33;3.47;;;;;;;39.70;28.25;100411.45;2027962;94;25621;-90
2021/09/15 07:56:23;;;;;;;5.55;3.67;;;;;;;40.19;27.24;100414.27;2015200;94;25736;-78
2021/09/15 07:59:46;;;;;;;4.90;3.90;;;;;;;40.78;26.41;100407.34;2041234;94;26672;-76
2021/09/15 08:03:12;;;;;;;8.30;4.37;;;;;;;41.27;25.21;100411.78;2051999;94;26287;-76
2021/09/15 08:06:48;;;;;;;5.30;4.72;;;;;;;40.36;23.30;100416.14;2061446;94;26566;-80
2021/09/15 08:10:13;;;;;;;6.10;3.70;;;;;;;38.75;23.88;100403.73;2088501;93;25800;-76
2021/09/15 08:17:33;;;;;;;3.37;3.05;;;;;;;38.16;24.39;100401.45;2507073;77;25606;-81
2021/09/15 08:21:03;;;;;;;4.05;3.17;;;;;;;38.03;24.96;100393.55;2498515;78;25616;-89
2021/09/15 08:24:30;;;;;;;7.28;3.30;;;;;;;38.58;25.03;100413.97;2490842;77;26397;-75
2021/09/15 08:27:54;;;;;;;6.15;3.37;;;;;;;38.65;24.21;100413.27;2502117;78;25642;-74
2021/09/15 08:31:16;;;;;;;6.40;3.67;;;;;;;38.30;24.04;100415.66;2500664;77;25608;-75
2021/09/15 08:34:39;;;;;;;3.47;3.17;;;;;;;38.01;24.44;100413.27;2503397;77;25702;-75
2021/09/15 08:38:24;;;;;;;4.70;3.52;;;;;;;38.50;24.59;100418.27;2500544;77;25375;-75
2021/09/15 08:41:48;;;;;;;6.08;3.30;;;;;;;39.08;24.19;100421.97;2456753;79;25785;-75
2021/09/15 08:45:23;;;;;;;3.90;3.50;;;;;;;39.44;23.40;100429.35;2419540;80;26138;-75
2021/09/15 08:48:46;;;;;;;7.00;3.22;;;;;;;39.41;22.95;100431.02;2382834;81;25538;-75
2021/09/15 08:52:07;;;;;;;3.75;3.33;;;;;;;39.41;23.24;100432.38;2380280;81;25251;-76
2021/09/15 08:55:29;;;;;;;6.43;3.53;;;;;;;39.79;22.91;100433.23;2379451;83;25432;-75
2021/09/15 08:58:49;;;;;;;5.75;3.42;;;;;;;39.79;22.15;100428.28;2401619;80;25609;-76
2021/09/15 09:02:13;;;;;;;3.98;3.22;;;;;;;39.64;23.05;100429.27;2405796;81;25664;-80
2021/09/15 09:05:35;;;;;;;4.30;3.08;;;;;;;40.15;22.54;100431.13;2429960;79;25792;-77
2021/09/15 09:08:57;;;;;;;4.05;3.12;;;;;;;40.03;22.30;100426.34;2428954;79;25872;-75
2021/09/15 09:12:31;;;;;;;6.10;3.35;;;;;;;40.22;22.25;100426.25;2423901;79;25727;-74
2021/09/15 09:15:52;;;;;;;7.75;2.90;;;;;;;40.29;21.81;100419.16;2458567;78;25734;-75
2021/09/15 09:19:29;;;;;;;7.58;3.75;;;;;;;39.60;22.35;100419.17;2454110;79;25826;-76
2021/09/15 09:23:20;;;;;;;4.15;2.60;;;;;;;39.82;22.32;100417.06;2446085;80;25614;-79
2021/09/15 09:27:06;;;;;;;4.20;2.75;;;;;;;39.39;21.93;100406.28;2404612;78;26076;-77
2021/09/15 09:30:39;;;;;;;2.67;2.22;;;;;;;38.63;22.28;100409.81;2416320;80;25748;-76
2021/09/15 09:34:04;;;;;;;5.40;2.60;;;;;;;39.09;23.06;100406.84;2426250;80;25989;-74
2021/09/15 09:37:40;;;;;;;14.55;2.52;;;;;;;40.00;22.75;100404.84;2460181;78;25761;-78
2021/09/15 09:41:20;;;;;;;3.95;2.15;;;;;;;39.49;21.41;100401.64;2359866;80;25729;-78
2021/09/15 09:45:06;;;;;;;4.25;2.85;;;;;;;39.16;21.60;100406.60;2285270;83;25706;-76
2021/09/15 09:48:47;;;;;;;5.90;2.87;;;;;;;38.22;21.47;100395.45;2311415;84;26034;-82
2021/09/15 09:57:06;;;;;;;4.03;2.60;;;;;;;37.88;22.53;100387.28;2324848;83;25400;-78
2021/09/15 10:06:48;;;;;;;4.92;2.22;;;;;;;37.94;22.59;100378.59;2438095;79;25626;-77
2021/09/15 10:10:36;;;;;;;4.97;3.17;;;;;;;37.53;21.95;100377.23;2432802;79;25701;-76
2021/09/15 10:14:43;;;;;;;4.35;2.60;;;;;;;37.01;22.22;100366.02;2419581;78;26291;-76
2021/09/15 10:18:35;;;;;;;4.55;3.17;;;;;;;37.09;23.19;100359.39;2445018;78;25796;-77
2021/09/15 10:22:07;;;;;;;4.28;2.60;;;;;;;37.98;23.01;100356.39;2337226;82;26051;-78
2021/09/15 10:25:46;;;;;;;5.33;2.52;;;;;;;37.72;22.07;100361.95;2374609;82;26135;-76
2021/09/15 10:29:46;;;;;;;6.60;2.62;;;;;;;37.41;22.44;100355.69;2354313;80;26052;-79
2021/09/15 10:33:50;;;;;;;7.00;2.55;;;;;;;37.21;22.29;100350.66;2235351;86;25724;-78
2021/09/15 10:37:59;;;;;;;8.38;2.85;;;;;;;36.87;22.90;100338.66;2238376;86;26354;-77
2021/09/15 10:41:45;;;;;;;3.70;2.60;;;;;;;37.39;22.78;100338.13;2241589;87;26069;-76
2021/09/15 10:45:29;;;;;;;7.30;2.87;;;;;;;37.40;22.58;100342.59;2206718;88;25736;-80
2021/09/15 10:49:21;;;;;;;4.28;2.70;;;;;;;36.86;22.42;100341.87;2247182;87;26088;-80
2021/09/15 10:52:45;;;;;;;7.03;2.70;;;;;;;36.62;23.05;100334.02;2183515;86;25515;-79
2021/09/15 10:56:36;;;;;;;3.60;2.08;;;;;;;36.95;23.00;100324.39;2206207;87;25492;-79
2021/09/15 11:00:02;;;;;;;6.92;2.72;;;;;;;36.97;22.92;100324.66;2234969;86;25930;-75
2021/09/15 11:03:41;;;;;;;8.30;2.60;;;;;;;36.88;22.12;100326.28;2278503;86;26001;-76
2021/09/15 11:07:33;;;;;;;3.85;3.02;;;;;;;36.50;23.09;100320.12;2295583;81;25717;-79
2021/09/15 11:15:37;;;;;;;5.87;2.70;;;;;;;35.08;23.65;100316.98;2348628;83;25642;-80
2021/09/15 11:19:04;;;;;;;3.40;3.10;;;;;;;34.76;24.34;100312.23;2289742;86;26018;-87
2021/09/15 11:22:47;;;;;;;5.03;3.83;;;;;;;33.64;24.69;100310.39;2320890;80;25668;-87
2021/09/15 11:26:08;;;;;;;7.85;3.40;;;;;;;33.43;25.68;100303.34;2336022;83;25726;-86
2021/09/15 11:29:53;;;;;;;8.33;3.47;;;;;;;33.45;26.26;100296.00;2310606;83;25704;-79
2021/09/15 11:33:51;;;;;;;6.95;3.77;;;;;;;33.89;26.36;100291.37;2352131;83;25788;-77
2021/09/15 11:37:34;;;;;;;3.40;2.70;;;;;;;34.48;24.98;100283.72;2341517;83;26134;-88
2021/09/15 11:41:17;;;;;;;3.83;3.00;;;;;;;34.32;25.62;100274.56;2347145;83;25650;-80
2021/09/15 11:44:38;;;;;;;4.42;3.85;;;;;;;33.94;25.74;100271.58;2351198;80;26249;-72
2021/09/15 11:48:01;;;;;;;4.00;3.47;;;;;;;33.61;25.69;100272.27;2372568;80;25684;-72
2021/09/15 11:51:27;;;;;;;11.85;3.20;;;;;;;33.52;26.11;100260.81;2454842;80;25771;-73
2021/09/15 11:54:51;;;;;;;6.03;2.95;;;;;;;34.27;25.64;100258.70;2453819;80;25723;-72
2021/09/15 11:58:11;;;;;;;3.85;3.20;;;;;;;33.73;25.59;100257.84;2454293;80;25673;-72
2021/09/15 12:01:38;;;;;;;3.25;2.85;;;;;;;33.71;25.60;100263.84;2450124;80;25712;-72
2021/09/15 12:05:03;;;;;;;7.55;2.40;;;;;;;33.13;25.91;100268.98;2452024;80;25662;-72
2021/09/15 12:08:25;;;;;;;7.75;3.22;;;;;;;33.38;26.62;100262.66;2453777;80;26347;-73
2021/09/15 12:11:50;;;;;;;3.37;3.17;;;;;;;34.13;26.19;100264.81;2454427;80;25740;-73
2021/09/15 12:15:12;;;;;;;6.12;3.10;;;;;;;34.21;25.38;100272.70;2454592;80;25729;-72
2021/09/15 12:18:47;;;;;;;4.40;3.08;;;;;;;33.28;25.54;100280.53;2488468;78;25591;-73
2021/09/15 12:22:13;;;;;;;6.03;3.70;;;;;;;31.88;27.34;100268.24;2491493;79;26267;-73
2021/09/15 12:25:34;;;;;;;5.72;2.95;;;;;;;31.42;28.05;100257.77;2475858;79;25222;-75
2021/09/15 12:29:15;;;;;;;4.85;2.87;;;;;;;31.16;28.52;100252.70;2449702;79;26262;-74
2021/09/15 12:32:39;;;;;;;4.17;3.77;;;;;;;31.27;29.11;100244.30;2438142;79;25807;-73
2021/09/15 12:36:28;;;;;;;4.50;4.10;;;;;;;31.36;29.16;100235.30;2431492;80;25638;-73
2021/09/15 12:39:56;;;;;;;3.72;3.42;;;;;;;31.19;28.97;100229.63;2425746;80;25696;-72
2021/09/15 12:43:17;;;;;;;;;;;;;;;30.04;29.63;100219.23;2397050;82;25678;-72
2021/09/15 12:46:48;;;;;;;5.55;3.55;;;;;;;29.07;30.90;100214.04;2451333;78;25631;-72
2021/09/15 12:50:26;;;;;;;5.55;3.00;;;;;;;28.84;31.45;100220.64;2464824;78;25909;-72
2021/09/15 12:53:52;;;;;;;4.15;3.45;;;;;;;29.16;31.59;100212.19;2447812;79;25645;-73
2021/09/15 12:57:27;;;;;;;5.53;3.70;;;;;;;29.80;31.53;100198.69;2445687;80;25738;-72
2021/09/15 13:00:48;;;;;;;4.75;3.80;;;;;;;30.11;31.37;100197.26;2349980;82;25678;-76
2021/09/15 13:04:32;;;;;;;23.07;3.95;;;;;;;30.35;30.97;100195.41;2348559;82;25396;-80
2021/09/15 13:07:55;;;;;;;11.25;3.52;;;;;;;30.06;30.72;100199.34;2317746;83;25831;-71
2021/09/15 13:11:17;;;;;;;6.58;3.72;;;;;;;29.44;31.23;100186.92;2327415;83;25723;-71
2021/09/15 13:14:51;;;;;;;;;;;;;;;;;;;;;
2021/09/15 13:18:13;;;;;;;6.47;3.75;;;;;;;28.92;32.53;100189.34;2330281;83;26078;-71
2021/09/15 13:21:34;;;;;;;7.55;3.98;;;;;;;29.27;32.48;100189.23;2328710;84;25641;-71
2021/09/15 13:24:55;;;;;;;4.62;3.80;;;;;;;28.94;32.32;100188.32;2330226;84;25673;-71
2021/09/15 13:28:17;;;;;;;4.92;2.87;;;;;;;28.61;32.68;100180.30;2330459;84;25831;-72
2021/09/15 13:31:38;;;;;;;5.00;3.65;;;;;;;28.34;33.16;100173.24;2329993;83;25823;-70
2021/09/15 13:34:59;;;;;;;6.22;3.60;;;;;;;28.66;33.77;100165.33;2330113;84;25606;-70
2021/09/15 13:38:23;;;;;;;8.00;3.40;;;;;;;29.34;32.87;100162.42;2366318;81;25773;-71
2021/09/15 13:41:44;;;;;;;7.00;3.33;;;;;;;29.36;32.81;100165.41;2376049;82;25859;-70
2021/09/15 13:45:06;;;;;;;5.45;3.67;;;;;;;29.62;32.30;100150.47;2444453;79;25645;-70
2021/09/15 13:48:33;;;;;;;6.75;3.12;;;;;;;30.01;31.72;100149.52;2484555;79;25646;-70
2021/09/15 13:52:19;;;;;;;6.67;3.47;;;;;;;29.88;31.12;100146.71;2469051;79;25825;-71
2021/09/15 13:55:48;;;;;;;8.18;3.02;;;;;;;29.48;31.75;100155.76;2442197;80;25613;-71
2021/09/15 13:59:10;;;;;;;5.17;2.65;;;;;;;29.70;32.18;100142.42;2463041;79;25644;-70
2021/09/15 14:02:31;;;;;;;5.05;3.45;;;;;;;29.79;31.61;100151.28;2444931;79;25602;-70
2021/09/15 14:05:52;;;;;;;4.62;3.87;;;;;;;29.30;32.01;100153.67;2449512;79;25674;-75
2021/09/15 14:09:13;;;;;;;8.90;3.40;;;;;;;29.31;32.57;100154.05;2471541;79;25853;-70
2021/09/15 14:12:35;;;;;;;10.80;3.52;;;;;;;29.04;32.54;100147.59;2453683;79;26343;-71
2021/09/15 14:15:56;;;;;;;3.90;3.10;;;;;;;29.24;32.82;100148.66;2462897;79;26246;-71
2021/09/15 14:19:17;;;;;;;6.47;3.40;;;;;;;29.20;32.92;100137.70;2446743;79;25724;-72
2021/09/15 14:22:38;;;;;;;3.33;2.95;;;;;;;28.83;32.91;100126.83;2444200;80;25132;-71
2021/09/15 14:25:59;;;;;;;4.45;3.15;;;;;;;28.47;33.43;100123.88;2445044;80;25539;-71
2021/09/15 14:29:20;;;;;;;10.00;3.58;;;;;;;28.54;33.70;100123.94;2445092;80;25616;-71
2021/09/15 14:32:41;;;;;;;11.95;4.20;;;;;;;28.81;33.61;100123.35;2444466;80;25641;-70
2021/09/15 14:36:07;;;;;;;7.08;3.75;;;;;;;28.56;33.92;100111.31;2450329;79;25668;-70
2021/09/15 14:39:29;;;;;;;8.48;3.47;;;;;;;28.30;34.00;100109.16;2436176;79;26339;-70
2021/09/15 14:42:50;;;;;;;11.10;3.37;;;;;;;28.09;34.66;100121.42;2395766;82;25665;-72
2021/09/15 14:46:11;;;;;;;7.25;3.35;;;;;;;27.59;35.13;100116.85;2428148;79;26355;-70
2021/09/15 14:49:36;;;;;;;12.35;3.83;;;;;;;27.05;35.66;100112.81;2427592;79;25515;-70
2021/09/15 14:52:57;;;;;;;6.75;3.20;;;;;;;26.77;36.13;100111.95;2456493;79;25695;-71
2021/09/15 14:56:22;;;;;;;4.80;3.55;;;;;;;26.86;36.35;100111.95;2462524;79;25565;-71
2021/09/15 14:59:42;;;;;;;5.00;3.20;;;;;;;26.84;36.71;100108.03;2461660;79;25976;-71
2021/09/15 15:03:03;;;;;;;6.10;3.80;;;;;;;26.76;37.14;100114.67;2471418;79;26126;-81
2021/09/15 15:06:33;;;;;;;11.57;3.70;;;;;;;26.83;37.34;100114.33;2465768;79;25881;-72
2021/09/15 15:09:56;;;;;;;6.10;3.70;;;;;;;27.06;37.71;100109.66;2461489;79;25615;-81
2021/09/15 15:13:17;;;;;;;8.35;3.70;;;;;;;27.19;37.48;100111.30;2463269;79;25680;-88
2021/09/15 15:16:38;;;;;;;8.43;3.30;;;;;;;26.61;37.70;100106.92;2474817;79;25804;-72
2021/09/15 15:20:07;;;;;;;7.25;3.62;;;;;;;26.29;38.39;100111.94;2439209;79;25873;-72
2021/09/15 15:23:31;;;;;;;5.80;3.80;;;;;;;26.13;38.72;100109.09;2424135;80;25633;-71
2021/09/15 15:26:56;;;;;;;3.90;3.08;;;;;;;26.13;39.19;100107.75;2450015;79;25644;-84
2021/09/15 15:30:19;;;;;;;5.92;3.83;;;;;;;25.98;39.48;100106.22;2475911;79;25842;-72
2021/09/15 15:33:54;;;;;;;6.20;3.98;;;;;;;25.90;39.70;100098.08;2472265;79;25652;-72
2021/09/15 15:37:15;;;;;;;4.17;3.40;;;;;;;25.63;40.11;100094.78;2445701;79;25788;-71
2021/09/15 15:40:52;;;;;;;8.40;3.77;;;;;;;25.41;40.64;100097.95;2472138;79;25659;-71
2021/09/15 15:44:14;;;;;;;6.45;3.85;;;;;;;25.22;40.72;100087.67;2473149;79;25523;-75
2021/09/15 15:47:47;;;;;;;3.98;2.92;;;;;;;25.08;41.24;100092.22;2470915;79;25712;-71
2021/09/15 15:51:08;;;;;;;5.03;3.47;;;;;;;24.67;41.84;100090.71;2443859;78;25667;-72
2021/09/15 15:54:53;;;;;;;4.22;3.15;;;;;;;24.38;42.63;100091.82;2439293;79;26377;-79
2021/09/15 15:58:16;;;;;;;9.68;3.65;;;;;;;24.26;43.04;100086.00;2465842;80;25656;-72
2021/09/15 16:01:51;;;;;;;;;;;;;;;;;;;;;
2021/09/15 16:05:14;;;;;;;5.35;3.58;;;;;;;23.89;43.76;100055.88;2442042;79;26059;-78
2021/09/15 16:09:17;;;;;;;5.15;3.87;;;;;;;23.89;43.89;100060.34;2426155;78;25527;-89
2021/09/15 16:12:39;;;;;;;10.15;3.30;;;;;;;23.76;44.02;100051.48;2397143;81;25772;-75
2021/09/15 16:16:00;;;;;;;5.75;3.05;;;;;;;23.68;44.11;100057.98;2422873;80;25694;-74
2021/09/15 16:19:27;;;;;;;6.58;3.27;;;;;;;23.56;44.41;100061.47;2421184;80;25725;-71
2021/09/15 16:22:48;;;;;;;5.95;3.30;;;;;;;23.50;44.87;100060.34;2431456;79;26186;-71
2021/09/15 16:26:09;;;;;;;6.05;3.20;;;;;;;23.32;44.90;100065.84;2439993;79;25688;-73
2021/09/15 16:29:31;;;;;;;9.13;3.50;;;;;;;23.24;45.50;100071.87;2437564;80;25985;-70
2021/09/15 16:33:06;;;;;;;6.08;4.37;;;;;;;23.08;45.56;100063.98;2429419;80;25691;-80
2021/09/15 16:36:31;;;;;;;5.92;3.87;;;;;;;23.08;45.65;100061.33;2427773;79;25896;-76
2021/09/15 16:39:52;;;;;;;7.03;3.15;;;;;;;23.01;45.60;100054.01;2434486;80;25650;-79
2021/09/15 16:43:13;;;;;;;6.67;4.42;;;;;;;23.08;45.92;100067.97;2437009;80;25691;-78
2021/09/15 16:46:45;;;;;;;3.65;3.33;;;;;;;23.07;45.72;100060.45;2463003;78;25677;-73